Weather History for Clinton, MO

Change the Weather History Date:

Monday, January 7, 2013

  Actual Average (KSZL) Record (KSZL)
Temperature  
Mean Temperature 40 °F -  
Max Temperature 51 °F 37 °F 69 °F (2008)
Min Temperature 28 °F 21 °F -6 °F (2014)
Degree Days  
Heating Degree Days 26    
Moisture  
Dew Point 25 °F    
Average Humidity 63    
Maximum Humidity 80    
Minimum Humidity 40    
Precipitation  
Precipitation 0.00 in - - ()
Sea Level Pressure  
Sea Level Pressure 30.21 in    
Wind  
Wind Speed 7 mph (South)    
Max Wind Speed 14 mph    
Max Gust Speed 20 mph    
Visibility 10 miles    
Events      
Averages and records for this station are not official NWS values.
T = Trace of Precipitation, MM = Missing Value Source: NWS Daily Summary

Daily Weather History Graph

Daily Weather History Graph

Search for Another Location

Airport:

Trip Planner

Search our weather history database for the weather conditions in past years. The results will help you decide how hot, cold, wet, or windy it might be!

Date:

Astronomy

Jan. 07, 2013 Rise Set
Actual Time 7:32 AM CST 5:10 PM CST
Civil Twilight 7:02 AM CST 5:39 PM CST
Nautical Twilight 6:29 AM CST 6:12 PM CST
Astronomical Twilight 5:57 AM CST 6:44 PM CST
Moon 2:57 AM CST (1/7) 1:21 PM CST (1/7)
Length of Visible Light 10h 37m
Length of Day
9h 38m
Waning Crescent, 22% of the Moon is Illuminated
Jan 7
Waning Crescent
Jan 11
New
Jan 18
First Quarter
Jan 26
Full
Feb 3
Last Quarter

Hourly Weather History & Observations

Time (CST) Temp. Windchill Dew Point Humidity Pressure Visibility Wind Dir Wind Speed Gust Speed Precip Events Conditions
12:15 AM 28.4 °F 21.2 °F 23.0 °F 80% 30.33 in 9.0 mi SSE 6.9 mph - N/A   Clear
12:35 AM 28.4 °F 22.2 °F 23.0 °F 80% 30.33 in 8.0 mi South 5.8 mph - N/A   Clear
12:55 AM 28.4 °F 22.2 °F 23.0 °F 80% 30.33 in 9.0 mi SSE 5.8 mph - N/A   Clear
1:15 AM 28.4 °F 22.2 °F 23.0 °F 80% 30.32 in 9.0 mi SSE 5.8 mph - N/A   Clear
1:35 AM 28.4 °F 22.2 °F 23.0 °F 80% 30.32 in 9.0 mi SSE 5.8 mph - N/A   Clear
1:55 AM 28.4 °F 23.3 °F 23.0 °F 80% 30.32 in 10.0 mi SSE 4.6 mph - N/A   Clear
2:15 AM 28.4 °F 22.2 °F 21.2 °F 74% 30.32 in 9.0 mi SSE 5.8 mph - N/A   Clear
2:35 AM 28.4 °F 22.2 °F 21.2 °F 74% 30.32 in 9.0 mi South 5.8 mph - N/A   Clear
2:55 AM 28.4 °F 22.2 °F 21.2 °F 74% 30.32 in 10.0 mi South 5.8 mph - N/A   Clear
3:15 AM 28.4 °F 21.2 °F 21.2 °F 74% 30.31 in 9.0 mi South 6.9 mph - N/A   Clear
3:35 AM 28.4 °F 21.2 °F 21.2 °F 74% 30.30 in 10.0 mi South 6.9 mph - N/A   Clear
3:55 AM 28.4 °F 22.2 °F 21.2 °F 74% 30.29 in 10.0 mi SSE 5.8 mph - N/A   Clear
4:15 AM 28.4 °F 21.2 °F 21.2 °F 74% 30.28 in 10.0 mi SSE 6.9 mph - N/A   Clear
4:35 AM 28.4 °F 20.4 °F 21.2 °F 74% 30.28 in 10.0 mi South 8.1 mph - N/A   Clear
4:55 AM 28.4 °F 22.2 °F 21.2 °F 74% 30.27 in 10.0 mi South 5.8 mph - N/A   Clear
5:15 AM 28.4 °F 22.2 °F 21.2 °F 74% 30.27 in 10.0 mi South 5.8 mph - N/A   Clear
5:35 AM 28.4 °F 22.2 °F 21.2 °F 74% 30.27 in 10.0 mi South 5.8 mph - N/A   Clear
5:55 AM 30.2 °F 25.4 °F 21.2 °F 69% 30.27 in 10.0 mi SSW 4.6 mph - N/A   Clear
6:35 AM 30.2 °F 26.7 °F 21.2 °F 69% 30.29 in 10.0 mi SSW 3.5 mph - N/A   Clear
6:55 AM 30.2 °F 24.3 °F 21.2 °F 69% 30.29 in 10.0 mi South 5.8 mph - N/A   Clear
7:15 AM 28.4 °F 22.2 °F 21.2 °F 74% 30.29 in 10.0 mi South 5.8 mph - N/A   Clear
7:35 AM 30.2 °F 23.4 °F 21.2 °F 69% 30.29 in 9.0 mi South 6.9 mph - N/A   Clear
7:55 AM 30.2 °F 22.6 °F 21.2 °F 69% 30.29 in 9.0 mi South 8.1 mph - N/A   Clear
8:15 AM 32.0 °F 24.8 °F 23.0 °F 69% 30.28 in 8.0 mi South 8.1 mph - N/A   Clear
8:35 AM 32.0 °F 25.6 °F 23.0 °F 69% 30.28 in 9.0 mi South 6.9 mph - N/A   Clear
8:55 AM 33.8 °F 28.6 °F 24.8 °F 70% 30.28 in 9.0 mi South 5.8 mph - N/A   Clear
9:15 AM 35.6 °F 28.0 °F 26.6 °F 70% 30.28 in 10.0 mi South 10.4 mph - N/A   Clear
9:35 AM 35.6 °F 28.6 °F 26.6 °F 70% 30.28 in 9.0 mi South 9.2 mph - N/A   Clear
9:55 AM 37.4 °F 29.8 °F 26.6 °F 65% 30.28 in 10.0 mi South 11.5 mph 16.1 mph N/A   Clear
10:15 AM 39.2 °F 33.6 °F 26.6 °F 61% 30.28 in 9.0 mi South 8.1 mph 16.1 mph N/A   Clear
10:35 AM 41.0 °F 35.2 °F 28.4 °F 61% 30.29 in 10.0 mi SSW 9.2 mph - N/A   Clear
10:55 AM 42.8 °F 38.0 °F 28.4 °F 57% 30.29 in 10.0 mi SSW 8.1 mph - N/A   Clear
11:15 AM 44.6 °F 39.2 °F 28.4 °F 53% 30.27 in 9.0 mi SW 10.4 mph 17.3 mph N/A   Clear
11:35 AM 44.6 °F 39.7 °F 28.4 °F 53% 30.26 in 9.0 mi SSW 9.2 mph - N/A   Clear
11:55 AM 46.4 °F 41.5 °F 28.4 °F 50% 30.25 in 9.0 mi SSW 10.4 mph - N/A   Clear
12:15 PM 46.4 °F 40.4 °F 30.2 °F 53% 30.22 in 9.0 mi SSW 13.8 mph 19.6 mph N/A   Clear
12:35 PM 48.2 °F - 30.2 °F 50% 30.20 in 9.0 mi SSW 11.5 mph - N/A   Clear
1:15 PM 48.2 °F - 28.4 °F 46% 30.19 in 9.0 mi SSW 11.5 mph - N/A   Clear
1:35 PM 48.2 °F - 28.4 °F 46% 30.18 in 10.0 mi SSW 9.2 mph - N/A   Clear
1:55 PM 50.0 °F - 28.4 °F 43% 30.17 in 10.0 mi SSW 12.7 mph 17.3 mph N/A   Clear
2:15 PM 51.8 °F - 28.4 °F 41% 30.16 in 9.0 mi South 13.8 mph - N/A   Clear
2:55 PM 50.0 °F - 28.4 °F 43% 30.15 in 10.0 mi SSW 10.4 mph - N/A   Clear
3:15 PM 50.0 °F - 26.6 °F 40% 30.15 in 10.0 mi SSW 8.1 mph - N/A   Clear
3:35 PM 48.2 °F - 26.6 °F 43% 30.15 in 10.0 mi SSW 10.4 mph 17.3 mph N/A   Clear
3:55 PM 50.0 °F - 26.6 °F 40% 30.14 in 10.0 mi SSW 11.5 mph - N/A   Clear
4:15 PM 48.2 °F - 26.6 °F 43% 30.14 in 10.0 mi SSW 8.1 mph - N/A   Clear
4:35 PM 46.4 °F - 26.6 °F 46% 30.14 in 10.0 mi Calm Calm - N/A   Clear
5:15 PM 44.6 °F - 26.6 °F 49% 30.14 in 10.0 mi Calm Calm - N/A   Clear
5:35 PM 44.6 °F 41.4 °F 26.6 °F 49% 30.13 in 10.0 mi SSW 5.8 mph - N/A   Clear
5:55 PM 42.8 °F 40.1 °F 26.6 °F 53% 30.13 in 10.0 mi South 4.6 mph - N/A   Clear
6:15 PM 42.8 °F - 26.6 °F 53% 30.12 in 10.0 mi Calm Calm - N/A   Clear
6:35 PM 41.0 °F - 26.6 °F 57% 30.12 in 10.0 mi Calm Calm - N/A   Clear
6:55 PM 41.0 °F 38.0 °F 26.6 °F 57% 30.11 in 10.0 mi South 4.6 mph - N/A   Clear
7:15 PM 41.0 °F 37.1 °F 26.6 °F 57% 30.11 in 10.0 mi South 5.8 mph - N/A   Clear
7:35 PM 39.2 °F 34.2 °F 26.6 °F 61% 30.11 in 10.0 mi South 6.9 mph - N/A   Clear
7:55 PM 39.2 °F 35.0 °F 26.6 °F 61% 30.11 in 10.0 mi South 5.8 mph - N/A   Clear
8:15 PM 39.2 °F 35.0 °F 26.6 °F 61% 30.11 in 10.0 mi South 5.8 mph - N/A   Clear
8:35 PM 37.4 °F 32.8 °F 26.6 °F 65% 30.11 in 10.0 mi South 5.8 mph - N/A   Clear
8:55 PM 39.2 °F 34.2 °F 26.6 °F 61% 30.11 in 10.0 mi South 6.9 mph - N/A   Clear
9:15 PM 37.4 °F 32.1 °F 26.6 °F 65% 30.11 in 10.0 mi South 6.9 mph - N/A   Clear
9:35 PM 37.4 °F 32.1 °F 26.6 °F 65% 30.11 in 10.0 mi South 6.9 mph - N/A   Clear
9:55 PM 37.4 °F 32.1 °F 28.4 °F 70% 30.11 in 10.0 mi South 6.9 mph - N/A   Clear
10:15 PM 37.4 °F 32.8 °F 28.4 °F 70% 30.11 in 10.0 mi South 5.8 mph - N/A   Clear
10:35 PM 37.4 °F 32.1 °F 28.4 °F 70% 30.10 in 10.0 mi South 6.9 mph - N/A   Clear
10:55 PM 37.4 °F 31.4 °F 28.4 °F 70% 30.10 in 10.0 mi South 8.1 mph - N/A   Clear
11:15 PM 39.2 °F 33.0 °F 28.4 °F 65% 30.09 in 10.0 mi South 9.2 mph - N/A   Clear
11:35 PM 39.2 °F 35.0 °F 28.4 °F 65% 30.10 in 10.0 mi South 5.8 mph - N/A   Clear
11:55 PM 37.4 °F 32.1 °F 28.4 °F 70% 30.09 in 10.0 mi South 6.9 mph - N/A   Clear